createdAt,value
2019-02-14T00:00:11.776Z,23.12
2019-02-14T00:02:43.822Z,22.42
2019-02-14T00:05:16.519Z,24.57
2019-02-14T00:07:46.489Z,23.52
2019-02-14T00:10:16.806Z,23.25
2019-02-14T00:12:48.107Z,22.73
2019-02-14T00:15:18.483Z,22.77
2019-02-14T00:17:48.798Z,23.30
2019-02-14T00:20:19.922Z,22.93
2019-02-14T00:22:50.272Z,23.77
2019-02-14T00:25:20.724Z,23.77
2019-02-14T00:27:51.245Z,23.40
2019-02-14T00:30:21.657Z,23.00
2019-02-14T00:32:52.090Z,23.00
2019-02-14T00:35:25.065Z,23.20
2019-02-14T00:37:54.542Z,24.15
2019-02-14T00:40:25.305Z,23.98
2019-02-14T00:42:55.891Z,23.30
2019-02-14T00:45:26.295Z,23.20
2019-02-14T00:47:56.799Z,23.45
2019-02-14T00:50:27.092Z,23.57
2019-02-14T00:52:57.414Z,24.27
2019-02-14T00:55:27.763Z,23.62
2019-02-14T00:57:58.077Z,23.47
2019-02-14T01:00:28.408Z,22.30
2019-02-14T01:02:58.712Z,23.22
2019-02-14T01:05:33.662Z,23.25
2019-02-14T01:08:02.266Z,22.65
2019-02-14T01:10:32.687Z,23.55
2019-02-14T01:13:03.307Z,22.73
2019-02-14T01:15:35.301Z,22.75
2019-02-14T01:18:09.487Z,23.80
2019-02-14T01:20:39.810Z,22.25
2019-02-14T01:23:10.127Z,23.25
2019-02-14T01:25:40.449Z,22.42
2019-02-14T01:28:10.883Z,23.52
2019-02-14T01:30:41.275Z,24.12
2019-02-14T01:33:11.635Z,23.80
2019-02-14T01:35:42.245Z,23.60
2019-02-14T01:38:12.690Z,23.05
2019-02-14T01:40:43.086Z,24.32
2019-02-14T01:43:13.444Z,23.50
2019-02-14T01:45:43.756Z,22.93
2019-02-14T01:48:14.333Z,23.22
2019-02-14T01:50:44.700Z,22.55
2019-02-14T01:53:15.043Z,23.50
2019-02-14T01:55:45.416Z,22.82
2019-02-14T01:58:15.839Z,22.32
2019-02-14T02:00:46.216Z,23.92
2019-02-14T02:03:16.560Z,22.35
2019-02-14T02:05:50.852Z,24.27
2019-02-14T02:08:20.150Z,23.18
2019-02-14T02:10:51.143Z,22.75
2019-02-14T02:13:21.578Z,24.10
2019-02-14T02:15:51.919Z,23.52
2019-02-14T02:18:23.598Z,22.35
2019-02-14T02:20:54.551Z,24.50
2019-02-14T02:23:24.923Z,24.27
2019-02-14T02:25:55.278Z,23.75
2019-02-14T02:28:25.614Z,23.27
2019-02-14T02:30:57.900Z,22.50
2019-02-14T02:33:28.223Z,21.73
2019-02-14T02:36:00.486Z,21.95
2019-02-14T02:38:30.792Z,22.20
2019-02-14T02:41:01.186Z,23.20
2019-02-14T02:43:31.643Z,22.52
2019-02-14T02:46:03.608Z,23.15
2019-02-14T02:48:33.955Z,23.00
2019-02-14T02:51:04.319Z,24.15
2019-02-14T02:53:34.673Z,22.42
2019-02-14T02:56:05.181Z,23.57
2019-02-14T02:58:35.641Z,23.47
2019-02-14T03:01:06.075Z,23.45
2019-02-14T03:03:36.384Z,23.65
2019-02-14T03:06:10.683Z,22.77
2019-02-14T03:08:38.779Z,24.02
2019-02-14T03:11:09.211Z,23.50
2019-02-14T03:13:39.841Z,23.77
2019-02-14T03:16:10.174Z,21.85
2019-02-14T03:18:41.309Z,22.70
2019-02-14T03:21:11.630Z,22.73
2019-02-14T03:23:41.950Z,22.95
2019-02-14T03:26:12.287Z,23.30
2019-02-14T03:28:42.603Z,24.20
2019-02-14T03:31:12.936Z,24.77
2019-02-14T03:33:43.965Z,22.42
2019-02-14T03:36:19.011Z,21.80
2019-02-14T03:38:46.356Z,22.45
2019-02-14T03:41:16.761Z,22.93
2019-02-14T03:43:47.137Z,21.85
2019-02-14T03:46:17.485Z,23.32
2019-02-14T03:48:48.115Z,22.85
2019-02-14T03:51:18.498Z,22.65
2019-02-14T03:53:48.812Z,22.60
2019-02-14T03:56:21.163Z,23.70
2019-02-14T03:58:51.509Z,25.10
2019-02-14T04:01:21.843Z,23.65
2019-02-14T04:03:52.262Z,25.17
2019-02-14T04:06:27.504Z,23.27
2019-02-14T04:08:55.569Z,24.47
2019-02-14T04:11:25.907Z,22.93
2019-02-14T04:13:56.219Z,24.55
2019-02-14T04:16:26.620Z,23.47
2019-02-14T04:18:58.025Z,22.85
2019-02-14T04:21:31.419Z,23.50
2019-02-14T04:24:01.716Z,24.57
2019-02-14T04:26:32.038Z,25.77
2019-02-14T04:29:02.344Z,24.02
2019-02-14T04:31:32.686Z,24.27
2019-02-14T04:34:03.067Z,23.95
2019-02-14T04:36:36.031Z,25.12
2019-02-14T04:39:07.298Z,23.70
2019-02-14T04:41:37.667Z,24.57
2019-02-14T04:44:07.999Z,25.68
2019-02-14T04:46:38.336Z,25.10
2019-02-14T04:49:08.638Z,26.27
2019-02-14T04:51:42.171Z,25.20
2019-02-14T04:54:12.556Z,24.07
2019-02-14T04:56:42.903Z,24.07
2019-02-14T04:59:13.227Z,24.65
2019-02-14T05:01:43.620Z,22.93
2019-02-14T05:04:13.972Z,24.60
2019-02-14T05:06:44.604Z,24.55
2019-02-14T05:09:15.052Z,26.68
2019-02-14T05:11:45.455Z,28.55
2019-02-14T05:14:15.762Z,39.83
2019-02-14T05:16:46.038Z,33.85
2019-02-14T05:19:16.441Z,33.35
2019-02-14T05:21:47.470Z,26.42
2019-02-14T05:24:18.041Z,25.30
2019-02-14T05:26:48.499Z,26.60
2019-02-14T05:29:19.152Z,26.65
2019-02-14T05:31:49.787Z,33.05
2019-02-14T05:34:20.127Z,28.95
2019-02-14T05:36:53.595Z,25.90
2019-02-14T05:39:22.534Z,26.20
2019-02-14T05:41:52.820Z,25.68
2019-02-14T05:44:23.268Z,25.90
2019-02-14T05:46:53.683Z,25.70
2019-02-14T05:49:24.345Z,25.48
2019-02-14T05:51:54.623Z,25.77
2019-02-14T05:54:25.054Z,25.82
2019-02-14T05:56:55.524Z,25.75
2019-02-14T05:59:29.194Z,26.05
2019-02-14T06:01:59.501Z,25.65
2019-02-14T06:04:29.891Z,27.77
2019-02-14T06:07:01.307Z,28.05
2019-02-14T06:09:31.807Z,26.77
2019-02-14T06:12:02.267Z,26.75
2019-02-14T06:14:32.555Z,26.48
2019-02-14T06:17:03.155Z,25.90
2019-02-14T06:19:33.892Z,26.37
2019-02-14T06:22:10.311Z,26.00
2019-02-14T06:24:47.583Z,25.95
2019-02-14T06:27:17.943Z,26.02
2019-02-14T06:29:48.239Z,25.70
2019-02-14T06:32:18.557Z,25.82
2019-02-14T06:34:48.867Z,26.20
2019-02-14T06:37:19.201Z,26.68
2019-02-14T06:39:49.534Z,26.50
2019-02-14T06:42:31.861Z,25.05
2019-02-14T06:45:03.135Z,26.02
2019-02-14T06:47:33.531Z,26.65
2019-02-14T06:50:04.318Z,26.75
2019-02-14T06:52:34.665Z,25.15
2019-02-14T06:55:05.272Z,26.27
2019-02-14T06:57:36.650Z,25.92
2019-02-14T07:00:08.364Z,26.05
2019-02-14T07:02:40.070Z,24.85
2019-02-14T07:05:10.578Z,25.57
2019-02-14T07:07:41.118Z,25.20
2019-02-14T07:10:12.702Z,25.50
2019-02-14T07:12:43.065Z,25.50
2019-02-14T07:15:13.583Z,25.27
2019-02-14T07:17:44.414Z,25.02
2019-02-14T07:20:15.004Z,25.20
2019-02-14T07:22:45.653Z,25.43
2019-02-14T07:25:17.748Z,25.20
2019-02-14T07:27:49.506Z,25.72
2019-02-14T07:30:20.898Z,24.18
2019-02-14T07:32:51.308Z,24.30
2019-02-14T07:35:22.887Z,23.98
2019-02-14T07:37:53.205Z,24.37
2019-02-14T07:40:23.543Z,24.27
2019-02-14T07:42:53.906Z,23.12
2019-02-14T07:45:24.704Z,23.20
2019-02-14T07:47:55.008Z,22.40
2019-02-14T07:50:25.603Z,21.45
2019-02-14T07:52:56.018Z,20.30
2019-02-14T07:55:26.548Z,20.40
2019-02-14T07:57:56.965Z,19.23
2019-02-14T08:00:28.147Z,19.67
2019-02-14T08:02:58.652Z,18.35
2019-02-14T08:05:31.227Z,18.12
2019-02-14T08:08:01.947Z,19.70
2019-02-14T08:10:32.295Z,19.15
2019-02-14T08:13:02.693Z,18.45
2019-02-14T08:15:33.165Z,17.90
2019-02-14T08:18:09.755Z,17.98
2019-02-14T08:20:40.098Z,18.30
2019-02-14T08:23:10.459Z,17.32
2019-02-14T08:25:44.146Z,18.48
2019-02-14T08:28:14.549Z,18.42
2019-02-14T08:30:44.843Z,16.75
2019-02-14T08:33:15.183Z,17.55
2019-02-14T08:35:47.567Z,17.23
2019-02-14T08:38:18.209Z,17.70
2019-02-14T08:40:48.506Z,17.50
2019-02-14T08:43:18.841Z,16.52
2019-02-14T08:45:49.216Z,17.80
2019-02-14T08:48:20.431Z,17.30
2019-02-14T08:50:50.747Z,16.80
2019-02-14T08:53:21.315Z,17.02
2019-02-14T08:55:51.705Z,17.60
2019-02-14T08:58:22.001Z,18.30
2019-02-14T09:00:52.371Z,16.50
2019-02-14T09:03:22.911Z,17.62
2019-02-14T09:05:53.305Z,17.75
2019-02-14T09:08:23.842Z,17.45
2019-02-14T09:10:54.133Z,18.05
2019-02-14T09:13:24.587Z,17.35
2019-02-14T09:15:54.916Z,17.85
2019-02-14T09:18:27.355Z,17.90
2019-02-14T09:20:57.827Z,17.20
2019-02-14T09:23:28.241Z,18.73
2019-02-14T09:25:59.583Z,19.05
2019-02-14T09:28:29.921Z,18.12
2019-02-14T09:31:00.267Z,18.07
2019-02-14T09:33:31.283Z,18.00
2019-02-14T09:36:01.686Z,17.73
2019-02-14T09:38:32.011Z,18.12
2019-02-14T09:41:02.353Z,17.37
2019-02-14T09:43:32.737Z,18.20
2019-02-14T09:46:03.118Z,19.27
2019-02-14T09:48:33.509Z,18.00
2019-02-14T09:51:03.890Z,17.65
2019-02-14T09:53:34.304Z,17.37
2019-02-14T09:56:05.107Z,17.52
2019-02-14T09:58:35.443Z,18.73
2019-02-14T10:01:05.769Z,18.80
2019-02-14T10:03:36.445Z,19.30
2019-02-14T10:06:06.869Z,17.23
2019-02-14T10:08:37.936Z,17.73
2019-02-14T10:11:08.400Z,17.77
2019-02-14T10:13:38.698Z,18.67
2019-02-14T10:16:09.016Z,17.70
2019-02-14T10:18:39.356Z,16.80
2019-02-14T10:21:10.008Z,16.97
2019-02-14T10:23:40.419Z,16.42
2019-02-14T10:26:11.423Z,17.57
2019-02-14T10:28:42.495Z,16.30
2019-02-14T10:31:12.829Z,16.65
2019-02-14T10:33:43.235Z,16.85
2019-02-14T10:36:14.634Z,16.75
2019-02-14T10:38:46.879Z,16.25
2019-02-14T10:41:17.407Z,15.70
2019-02-14T10:43:49.020Z,16.50
2019-02-14T10:46:19.605Z,16.57
2019-02-14T10:48:49.991Z,16.40
2019-02-14T10:51:20.324Z,16.12
2019-02-14T10:53:50.764Z,15.72
2019-02-14T10:56:21.836Z,16.37
2019-02-14T10:58:52.287Z,15.60
2019-02-14T11:01:22.764Z,15.08
2019-02-14T11:03:53.152Z,16.42
2019-02-14T11:06:24.249Z,19.05
2019-02-14T11:08:55.121Z,16.42
2019-02-14T11:11:25.480Z,17.10
2019-02-14T11:13:55.879Z,16.50
2019-02-14T11:16:26.249Z,16.02
2019-02-14T11:18:59.238Z,18.55
2019-02-14T11:21:29.555Z,18.65
2019-02-14T11:24:00.215Z,21.10
2019-02-14T11:26:30.699Z,22.05
2019-02-14T11:29:01.011Z,17.05
2019-02-14T11:31:31.456Z,16.20
2019-02-14T11:34:01.799Z,16.57
2019-02-14T11:36:32.353Z,17.05
2019-02-14T11:39:04.554Z,15.25
2019-02-14T11:41:34.892Z,16.42
2019-02-14T11:44:06.349Z,16.05
2019-02-14T11:46:36.699Z,16.25
2019-02-14T11:49:07.072Z,16.75
2019-02-14T11:51:37.432Z,16.73
2019-02-14T11:54:07.738Z,14.95
2019-02-14T11:56:38.169Z,15.28
2019-02-14T11:59:08.612Z,15.45
2019-02-14T12:01:38.992Z,15.38
2019-02-14T12:04:09.363Z,16.52
2019-02-14T12:06:39.877Z,16.40
2019-02-14T12:09:13.371Z,16.50
2019-02-14T12:11:43.717Z,16.30
2019-02-14T12:14:14.118Z,16.07
2019-02-14T12:16:44.566Z,15.45
2019-02-14T12:19:15.220Z,16.12
2019-02-14T12:21:47.129Z,16.12
2019-02-14T12:24:17.480Z,16.02
2019-02-14T12:26:47.835Z,17.10
2019-02-14T12:29:18.236Z,17.48
2019-02-14T12:31:49.277Z,15.58
2019-02-14T12:34:19.656Z,16.12
2019-02-14T12:36:50.218Z,15.55
2019-02-14T12:39:20.572Z,15.43
2019-02-14T12:41:51.016Z,16.40
2019-02-14T12:44:22.177Z,15.68
2019-02-14T12:46:52.744Z,16.35
2019-02-14T12:49:23.136Z,14.98
2019-02-14T12:51:53.532Z,16.15
2019-02-14T12:54:24.067Z,15.23
2019-02-14T12:56:54.472Z,16.07
2019-02-14T12:59:25.803Z,16.15
2019-02-14T13:01:56.156Z,15.70
2019-02-14T13:04:26.543Z,15.95
2019-02-14T13:06:56.964Z,15.38
2019-02-14T13:09:28.045Z,14.47
2019-02-14T13:11:58.454Z,15.43
2019-02-14T13:14:28.886Z,14.53
2019-02-14T13:16:59.197Z,14.20
2019-02-14T13:19:29.611Z,15.93
2019-02-14T13:22:00.096Z,14.95
2019-02-14T13:24:30.786Z,14.98
2019-02-14T13:27:01.191Z,15.90
2019-02-14T13:29:31.741Z,14.95
2019-02-14T13:32:02.243Z,15.13
2019-02-14T13:34:32.627Z,15.03
2019-02-14T13:37:03.220Z,13.50
2019-02-14T13:39:33.651Z,14.13
2019-02-14T13:42:04.060Z,12.70
2019-02-14T13:44:34.750Z,12.73
2019-02-14T13:47:05.441Z,12.73
2019-02-14T13:49:35.874Z,13.08
2019-02-14T13:52:06.306Z,12.23
2019-02-14T13:54:36.655Z,11.68
2019-02-14T13:57:07.159Z,10.95
2019-02-14T13:59:37.656Z,11.18
2019-02-14T14:02:08.648Z,11.48
2019-02-14T14:04:39.879Z,11.93
2019-02-14T14:07:10.219Z,11.83
2019-02-14T14:09:42.324Z,10.65
2019-02-14T14:12:12.676Z,10.00
2019-02-14T14:14:43.255Z,10.43
2019-02-14T14:17:13.648Z,11.73
2019-02-14T14:19:44.006Z,10.40
2019-02-14T14:22:14.479Z,11.43
2019-02-14T14:24:44.824Z,11.95
2019-02-14T14:27:15.152Z,11.73
2019-02-14T14:29:45.481Z,13.28
2019-02-14T14:32:15.955Z,12.33
2019-02-14T14:34:46.285Z,14.53
2019-02-14T14:37:17.076Z,18.37
2019-02-14T14:39:48.113Z,22.50
2019-02-14T14:42:36.224Z,22.62
2019-02-14T14:45:08.566Z,18.75
2019-02-14T14:47:38.920Z,16.20
2019-02-14T14:50:09.386Z,14.20
2019-02-14T14:52:40.031Z,13.88
2019-02-14T14:55:10.388Z,12.78
2019-02-14T14:57:40.753Z,12.78
2019-02-14T15:00:11.485Z,12.88
2019-02-14T15:02:41.866Z,13.10
2019-02-14T15:05:12.306Z,13.50
2019-02-14T15:07:42.731Z,11.85
2019-02-14T15:10:14.012Z,12.75
2019-02-14T15:12:44.342Z,11.85
2019-02-14T15:15:14.798Z,12.65
2019-02-14T15:17:45.535Z,11.33
2019-02-14T15:20:17.281Z,11.65
2019-02-14T15:22:47.751Z,11.43
2019-02-14T15:25:18.021Z,11.30
2019-02-14T15:27:48.403Z,12.05
2019-02-14T15:30:20.118Z,11.93
2019-02-14T15:32:50.486Z,11.68
2019-02-14T15:35:20.808Z,11.93
2019-02-14T15:37:52.687Z,11.78
2019-02-14T15:40:23.197Z,12.50
2019-02-14T15:42:53.756Z,14.07
2019-02-14T15:45:24.200Z,12.28
2019-02-14T15:47:54.682Z,13.45
2019-02-14T15:50:25.003Z,11.90
2019-02-14T15:52:57.008Z,12.18
2019-02-14T15:55:27.527Z,12.82
2019-02-14T15:57:57.822Z,13.78
2019-02-14T16:00:30.589Z,13.58
2019-02-14T16:03:00.545Z,13.30
2019-02-14T16:05:31.675Z,13.88
2019-02-14T16:08:02.902Z,14.20
2019-02-14T16:10:34.158Z,14.55
2019-02-14T16:13:05.812Z,13.48
2019-02-14T16:15:36.645Z,12.73
2019-02-14T16:18:08.523Z,12.45
2019-02-14T16:20:40.427Z,12.78
2019-02-14T16:23:11.780Z,13.30
2019-02-14T16:25:42.064Z,13.75
2019-02-14T16:28:13.727Z,14.18
2019-02-14T16:30:44.227Z,12.75
2019-02-14T16:33:14.520Z,13.70
2019-02-14T16:35:44.943Z,13.20
2019-02-14T16:38:15.450Z,12.37
2019-02-14T16:40:46.707Z,12.50
2019-02-14T16:43:17.056Z,13.28
2019-02-14T16:45:47.450Z,13.03
2019-02-14T16:48:18.512Z,13.10
2019-02-14T16:50:48.855Z,13.65
2019-02-14T16:53:19.186Z,14.13
2019-02-14T16:55:49.526Z,17.25
2019-02-14T16:58:19.805Z,17.77
2019-02-14T17:00:50.177Z,19.52
2019-02-14T17:03:20.843Z,14.90
2019-02-14T17:05:51.264Z,14.63
2019-02-14T17:08:21.696Z,13.53
2019-02-14T17:10:52.180Z,13.28
2019-02-14T17:13:22.535Z,13.90
2019-02-14T17:15:52.930Z,15.08
2019-02-14T17:18:30.527Z,13.72
2019-02-14T17:21:01.015Z,14.00
2019-02-14T17:23:31.438Z,13.05
2019-02-14T17:26:01.753Z,12.18
2019-02-14T17:28:32.258Z,14.68
2019-02-14T17:31:02.560Z,13.88
2019-02-14T17:33:33.637Z,13.62
2019-02-14T17:36:04.112Z,13.35
2019-02-14T17:38:34.547Z,14.00
2019-02-14T17:41:04.880Z,13.15
2019-02-14T17:43:35.212Z,13.45
2019-02-14T17:46:05.823Z,13.68
2019-02-14T17:48:36.181Z,13.48
2019-02-14T17:51:06.540Z,12.88
2019-02-14T17:53:37.105Z,13.43
2019-02-14T17:56:07.474Z,13.80
2019-02-14T17:58:37.785Z,13.53
2019-02-14T18:01:08.300Z,13.03
2019-02-14T18:03:38.651Z,13.70
2019-02-14T18:06:12.772Z,13.25
2019-02-14T18:08:43.352Z,13.85
2019-02-14T18:11:17.299Z,13.10
2019-02-14T18:13:47.631Z,13.32
2019-02-14T18:16:19.062Z,14.18
2019-02-14T18:18:55.803Z,13.38
2019-02-14T18:21:26.248Z,14.70
2019-02-14T18:23:56.583Z,15.00
2019-02-14T18:26:26.986Z,14.13
2019-02-14T18:28:57.342Z,13.10
2019-02-14T18:31:27.848Z,13.50
2019-02-14T18:33:58.186Z,13.50
2019-02-14T18:36:30.341Z,14.43
2019-02-14T18:39:00.747Z,15.45
2019-02-14T18:41:32.729Z,13.93
2019-02-14T18:44:03.132Z,14.23
2019-02-14T18:46:33.611Z,13.68
2019-02-14T18:49:04.117Z,13.53
2019-02-14T18:51:34.674Z,13.35
2019-02-14T18:54:05.079Z,13.13
2019-02-14T18:56:35.372Z,13.75
2019-02-14T18:59:05.731Z,12.63
2019-02-14T19:01:36.032Z,13.83
2019-02-14T19:04:06.463Z,15.78
2019-02-14T19:06:36.786Z,15.10
2019-02-14T19:09:08.953Z,15.83
2019-02-14T19:11:39.347Z,14.65
2019-02-14T19:14:09.735Z,15.80
2019-02-14T19:16:40.104Z,14.83
2019-02-14T19:19:11.485Z,15.13
2019-02-14T19:21:41.838Z,16.00
2019-02-14T19:24:12.158Z,15.25
2019-02-14T19:26:42.519Z,15.10
2019-02-14T19:29:12.891Z,14.98
2019-02-14T19:31:43.289Z,15.53
2019-02-14T19:34:13.654Z,15.50
2019-02-14T19:36:44.002Z,15.18
2019-02-14T19:39:14.383Z,15.63
2019-02-14T19:41:44.797Z,15.03
2019-02-14T19:44:15.125Z,15.25
2019-02-14T19:46:45.489Z,16.05
2019-02-14T19:49:16.628Z,14.85
2019-02-14T19:51:47.031Z,15.00
2019-02-14T19:54:17.357Z,14.98
2019-02-14T19:56:47.808Z,15.05
2019-02-14T19:59:18.094Z,15.88
2019-02-14T20:01:48.449Z,15.50
2019-02-14T20:04:18.854Z,15.32
2019-02-14T20:06:49.235Z,16.90
2019-02-14T20:09:19.675Z,15.30
2019-02-14T20:11:50.136Z,15.03
2019-02-14T20:14:21.219Z,15.30
2019-02-14T20:16:51.836Z,14.95
2019-02-14T20:19:22.484Z,13.55
2019-02-14T20:21:52.964Z,12.80
2019-02-14T20:24:23.301Z,13.28
2019-02-14T20:26:54.015Z,13.38
2019-02-14T20:29:24.380Z,14.05
2019-02-14T20:31:54.940Z,24.27
2019-02-14T20:34:25.398Z,20.88
2019-02-14T20:36:55.787Z,21.75
2019-02-14T20:39:27.307Z,21.60
2019-02-14T20:41:57.619Z,23.32
2019-02-14T20:44:27.987Z,16.45
2019-02-14T20:46:58.410Z,13.80
2019-02-14T20:49:28.870Z,13.72
2019-02-14T20:51:59.207Z,12.45
2019-02-14T20:54:29.633Z,12.90
2019-02-14T20:57:00.193Z,11.35
2019-02-14T20:59:32.662Z,11.38
2019-02-14T21:02:03.143Z,12.05
2019-02-14T21:04:33.536Z,10.95
2019-02-14T21:07:03.933Z,11.12
2019-02-14T21:09:34.595Z,10.88
2019-02-14T21:12:05.132Z,11.10
2019-02-14T21:14:35.488Z,10.15
2019-02-14T21:17:05.826Z,10.85
2019-02-14T21:19:36.623Z,10.72
2019-02-14T21:22:17.751Z,10.25
2019-02-14T21:24:41.138Z,10.15
2019-02-14T21:27:11.633Z,9.43
2019-02-14T21:29:42.084Z,10.18
2019-02-14T21:32:12.380Z,10.18
2019-02-14T21:34:42.814Z,10.58
2019-02-14T21:37:14.034Z,11.05
2019-02-14T21:39:45.285Z,11.15
2019-02-14T21:42:20.971Z,10.58
2019-02-14T21:44:49.713Z,10.50
2019-02-14T21:47:20.101Z,10.05
2019-02-14T21:49:50.530Z,10.15
2019-02-14T21:52:20.958Z,10.38
2019-02-14T21:54:51.847Z,10.55
2019-02-14T21:57:22.222Z,9.80
2019-02-14T21:59:52.570Z,10.98
2019-02-14T22:02:22.987Z,10.40
2019-02-14T22:04:53.385Z,11.70
2019-02-14T22:07:23.734Z,10.28
2019-02-14T22:09:54.392Z,11.15
2019-02-14T22:12:38.275Z,11.20
2019-02-14T22:14:57.026Z,11.10
2019-02-14T22:17:27.362Z,11.00
2019-02-14T22:19:58.656Z,10.23
2019-02-14T22:22:29.055Z,10.95
2019-02-14T22:24:59.411Z,11.43
2019-02-14T22:27:29.867Z,11.45
2019-02-14T22:30:00.595Z,10.85
2019-02-14T22:32:30.956Z,10.48
2019-02-14T22:35:01.412Z,11.08
2019-02-14T22:37:31.756Z,10.85
2019-02-14T22:40:02.200Z,11.10
2019-02-14T22:42:32.727Z,11.43
2019-02-14T22:45:03.114Z,12.15
2019-02-14T22:47:33.554Z,11.15
2019-02-14T22:50:04.100Z,12.23
2019-02-14T22:52:34.547Z,13.32
2019-02-14T22:55:05.220Z,16.05
2019-02-14T22:57:35.621Z,18.40
2019-02-14T23:00:13.255Z,13.98
2019-02-14T23:02:44.243Z,14.75
2019-02-14T23:05:16.485Z,13.88
2019-02-14T23:07:47.028Z,12.45
2019-02-14T23:10:17.351Z,12.75
2019-02-14T23:12:55.447Z,11.95
2019-02-14T23:15:20.083Z,11.78
2019-02-14T23:17:50.492Z,11.40
2019-02-14T23:20:27.478Z,12.47
2019-02-14T23:22:58.518Z,12.07
2019-02-14T23:25:29.446Z,12.53
2019-02-14T23:28:01.425Z,15.28
2019-02-14T23:30:31.759Z,13.35
2019-02-14T23:33:02.122Z,12.53
2019-02-14T23:35:32.539Z,15.53
2019-02-14T23:38:03.193Z,13.48
2019-02-14T23:40:33.530Z,13.38
2019-02-14T23:43:07.529Z,18.27
2019-02-14T23:45:59.445Z,18.23
2019-02-14T23:48:34.855Z,14.80
2019-02-14T23:51:05.286Z,13.85
2019-02-14T23:53:35.737Z,12.37
2019-02-14T23:56:06.169Z,13.22
2019-02-14T23:58:36.532Z,12.05
